createdAt,value
2018-08-20T04:32:45.836Z,4.60
2018-08-20T04:35:13.961Z,5.50
2018-08-20T04:37:42.044Z,4.87
2018-08-20T04:40:10.173Z,5.00
2018-08-20T04:42:38.283Z,5.00
2018-08-20T04:45:06.681Z,5.07
2018-08-20T04:47:34.781Z,5.77
2018-08-20T04:50:02.897Z,6.13
2018-08-20T04:52:30.974Z,6.17
2018-08-20T04:54:59.084Z,6.13
2018-08-20T04:57:27.274Z,5.70
2018-08-20T04:59:55.376Z,5.63
2018-08-20T05:02:23.479Z,6.80
2018-08-20T05:04:51.629Z,6.00
2018-08-20T05:07:19.712Z,6.33
2018-08-20T05:09:47.816Z,6.83
2018-08-20T05:12:15.897Z,5.90
2018-08-20T05:14:44.016Z,5.97
2018-08-20T05:17:12.121Z,6.00
2018-08-20T05:19:40.245Z,6.00
2018-08-20T05:22:08.349Z,5.97
2018-08-20T05:24:36.453Z,5.50
2018-08-20T05:27:04.833Z,6.10
2018-08-20T05:29:33.042Z,5.83
2018-08-20T05:32:01.104Z,5.90
2018-08-20T05:34:29.172Z,6.50
2018-08-20T05:36:57.302Z,6.33
2018-08-20T05:39:25.438Z,5.60
2018-08-20T05:42:00.025Z,7.40
2018-08-20T05:44:28.108Z,8.13
2018-08-20T05:46:56.237Z,7.10
2018-08-20T05:49:24.445Z,7.40
2018-08-20T05:51:52.537Z,6.70
2018-08-20T05:54:20.624Z,5.40
2018-08-20T05:56:48.746Z,6.17
2018-08-20T05:59:16.867Z,5.77
2018-08-20T06:01:44.945Z,5.30
2018-08-20T06:04:13.070Z,5.40
2018-08-20T06:06:41.177Z,5.23
2018-08-20T06:09:10.536Z,5.87
2018-08-20T06:11:38.756Z,4.90
2018-08-20T06:14:06.897Z,5.00
2018-08-20T06:16:35.112Z,5.40
2018-08-20T06:19:03.379Z,5.30
2018-08-20T06:21:32.114Z,5.50
2018-08-20T06:24:00.238Z,5.40
2018-08-20T06:26:28.354Z,5.17
2018-08-20T06:28:56.937Z,4.90
2018-08-20T06:31:25.041Z,5.23
2018-08-20T06:33:53.368Z,5.23
2018-08-20T06:36:21.462Z,5.50
2018-08-20T06:38:49.589Z,5.57
2018-08-20T06:41:17.668Z,5.47
2018-08-20T06:43:45.769Z,4.90
2018-08-20T15:02:51.372Z,4.13
2018-08-20T15:05:19.499Z,4.93
2018-08-20T15:07:47.673Z,4.37
2018-08-20T15:10:15.771Z,4.73
2018-08-20T15:12:43.980Z,4.50
2018-08-20T15:15:12.140Z,4.73
2018-08-20T15:17:40.236Z,4.77
2018-08-20T15:20:08.980Z,4.40
2018-08-20T15:22:37.439Z,4.07
2018-08-20T15:25:05.780Z,4.67
2018-08-20T15:27:33.905Z,4.23
2018-08-20T15:30:02.055Z,4.40
2018-08-20T15:32:30.201Z,6.00
2018-08-20T15:34:58.305Z,4.23
2018-08-20T15:37:26.441Z,4.83
2018-08-20T15:39:54.568Z,5.17
2018-08-20T15:42:22.754Z,4.67
2018-08-20T15:44:50.883Z,4.77
2018-08-20T15:47:19.022Z,4.63
2018-08-20T15:49:47.132Z,4.73
2018-08-20T15:52:15.303Z,5.07
2018-08-20T15:54:43.424Z,4.67
2018-08-20T15:57:11.512Z,5.40
2018-08-20T15:59:46.118Z,4.73
2018-08-20T16:02:14.295Z,4.50
2018-08-20T16:04:42.400Z,4.77
2018-08-20T16:07:10.570Z,4.60
2018-08-20T16:09:38.740Z,4.87
2018-08-20T16:12:06.951Z,5.03
2018-08-20T16:14:35.077Z,4.40
2018-08-20T16:17:03.193Z,5.00
2018-08-20T16:19:31.345Z,5.20
2018-08-20T16:21:59.469Z,4.80
2018-08-20T16:24:27.561Z,4.83
2018-08-20T16:26:55.701Z,5.90
2018-08-20T16:29:23.797Z,4.53
2018-08-20T16:31:51.954Z,4.87
2018-08-20T16:34:20.084Z,4.73
2018-08-20T16:36:48.204Z,5.53
2018-08-20T16:39:16.374Z,4.57
2018-08-20T16:41:44.543Z,4.50
2018-08-20T16:44:12.684Z,4.60
2018-08-20T16:46:40.857Z,4.70
2018-08-20T16:49:10.107Z,4.43
2018-08-20T16:51:38.233Z,4.93
2018-08-20T16:54:06.726Z,4.97
2018-08-20T16:56:34.896Z,4.53
2018-08-20T16:59:03.167Z,5.10
2018-08-20T17:01:31.284Z,5.03
2018-08-20T17:03:59.409Z,4.43
2018-08-20T17:06:43.205Z,4.63
2018-08-20T17:09:11.598Z,5.03
2018-08-20T17:11:39.728Z,4.63
2018-08-20T17:14:07.895Z,4.23
2018-08-20T17:16:36.001Z,4.67
2018-08-20T17:19:04.159Z,4.20
2018-08-20T17:21:32.333Z,4.10
2018-08-20T17:24:00.579Z,4.63
2018-08-20T17:26:28.769Z,4.23
2018-08-20T17:29:01.137Z,3.90
2018-08-20T17:31:29.304Z,3.87
2018-08-20T17:33:57.461Z,4.67
2018-08-20T17:36:25.644Z,4.20
2018-08-20T17:38:53.740Z,3.90
2018-08-20T17:41:21.928Z,4.73
2018-08-20T17:43:50.064Z,4.27
2018-08-20T17:46:18.240Z,4.50
2018-08-20T17:48:46.328Z,4.50
2018-08-20T17:51:14.472Z,3.90
2018-08-20T17:53:51.735Z,3.90
2018-08-20T17:56:19.897Z,3.63
2018-08-20T17:58:52.093Z,3.80
2018-08-20T18:01:20.247Z,3.43
2018-08-20T18:03:55.231Z,3.33
2018-08-20T18:06:37.002Z,3.10
2018-08-20T18:09:05.653Z,4.00
2018-08-20T18:11:36.023Z,3.53
2018-08-20T18:14:04.305Z,3.47
2018-08-20T18:16:32.388Z,3.77
2018-08-20T18:19:00.510Z,3.93
2018-08-20T18:21:28.617Z,4.10
2018-08-20T18:23:56.742Z,3.43
2018-08-20T18:26:29.267Z,3.30
2018-08-20T18:28:57.383Z,3.30
2018-08-20T18:31:27.005Z,3.60
2018-08-20T18:33:55.232Z,3.57
2018-08-20T18:36:25.521Z,3.23
2018-08-20T18:38:59.052Z,4.23
2018-08-20T18:42:06.244Z,3.77
2018-08-20T18:44:34.381Z,3.40
2018-08-20T18:47:02.734Z,3.60
2018-08-20T18:49:30.901Z,2.70
2018-08-20T18:52:07.609Z,3.10
2018-08-20T18:54:37.214Z,2.83
2018-08-20T18:57:06.025Z,2.60
2018-08-20T18:59:36.055Z,2.90
2018-08-20T19:02:04.404Z,3.27
2018-08-20T19:04:38.941Z,3.07
2018-08-20T19:07:09.877Z,3.50
2018-08-20T19:09:38.949Z,3.17
2018-08-20T19:12:07.601Z,3.07
2018-08-20T19:14:35.803Z,3.00
2018-08-20T19:17:12.558Z,3.10
2018-08-20T19:19:45.168Z,3.10
2018-08-20T19:22:17.571Z,2.80
2018-08-20T19:24:46.568Z,2.60
2018-08-20T19:27:14.983Z,2.77
2018-08-20T19:29:43.119Z,3.03
2018-08-20T19:32:11.292Z,3.30
2018-08-20T19:34:39.493Z,3.10
2018-08-20T19:37:08.104Z,2.80
2018-08-20T19:39:36.420Z,2.93
2018-08-20T19:42:05.167Z,3.10
2018-08-20T19:44:33.488Z,3.23
2018-08-20T19:47:01.614Z,2.80
2018-08-20T19:49:29.785Z,3.20
2018-08-20T19:51:57.900Z,3.33
2018-08-20T19:54:26.053Z,2.93
2018-08-20T19:56:54.181Z,2.50
2018-08-20T19:59:27.616Z,3.20
2018-08-20T20:01:56.134Z,2.87
2018-08-20T20:04:24.304Z,2.60
2018-08-20T20:06:52.439Z,3.37
2018-08-20T20:09:20.625Z,3.50
2018-08-20T20:11:50.156Z,3.60
2018-08-20T20:14:19.080Z,2.77
2018-08-20T20:16:54.202Z,3.60
2018-08-20T20:19:22.447Z,3.20
2018-08-20T20:21:50.574Z,2.43
2018-08-20T20:24:18.741Z,3.20
2018-08-20T20:26:46.829Z,3.57
2018-08-20T20:29:15.029Z,2.90
2018-08-20T20:31:43.529Z,3.10
2018-08-20T20:34:11.707Z,3.50
2018-08-20T20:36:39.978Z,3.30
2018-08-20T20:39:11.409Z,3.60
2018-08-20T20:41:39.694Z,3.07
2018-08-20T20:44:08.344Z,2.83
2018-08-20T20:46:36.452Z,3.67
2018-08-20T20:49:04.762Z,3.00
2018-08-20T20:51:32.939Z,3.30
2018-08-20T20:54:01.192Z,3.43
2018-08-20T20:56:29.570Z,2.90
2018-08-20T20:58:57.732Z,2.90
2018-08-20T21:01:25.901Z,3.40
2018-08-20T21:03:53.990Z,3.77
2018-08-20T21:06:22.138Z,3.10
2018-08-20T21:08:51.160Z,3.43
2018-08-20T21:11:20.437Z,3.40
2018-08-20T21:13:48.945Z,3.10
2018-08-20T21:16:19.042Z,3.20
2018-08-20T21:18:50.956Z,3.43
2018-08-20T21:21:19.364Z,3.63
2018-08-20T21:23:47.482Z,3.40
2018-08-20T21:26:15.563Z,3.77
2018-08-20T21:28:46.847Z,3.60
2018-08-20T21:31:16.202Z,4.10
2018-08-20T21:33:45.009Z,4.40
2018-08-20T21:36:13.767Z,4.43
2018-08-20T21:38:42.147Z,4.27
2018-08-20T21:41:10.276Z,4.07
2018-08-20T21:43:44.009Z,3.80
2018-08-20T21:46:12.720Z,4.30
2018-08-20T21:48:41.198Z,4.00
2018-08-20T21:51:13.637Z,3.70
2018-08-20T21:53:41.757Z,4.07
2018-08-20T21:56:11.068Z,4.00
2018-08-20T21:58:43.912Z,4.27
2018-08-20T22:01:13.490Z,3.93
2018-08-20T22:03:42.221Z,4.40
2018-08-20T22:06:10.596Z,4.50
2018-08-20T22:08:38.742Z,4.67
2018-08-20T22:11:07.414Z,4.43
2018-08-20T22:13:35.555Z,4.90
2018-08-20T22:16:14.364Z,4.40
2018-08-20T22:18:43.768Z,4.50
2018-08-20T22:21:16.012Z,4.63
2018-08-20T22:23:44.917Z,3.93
2018-08-20T22:26:14.561Z,4.27
2018-08-20T22:28:43.021Z,4.60
2018-08-20T22:31:11.173Z,3.93
2018-08-20T22:33:39.568Z,4.33
2018-08-20T22:36:08.792Z,4.73
2018-08-20T22:38:42.376Z,4.97
2018-08-20T22:41:10.524Z,4.50
2018-08-20T22:43:38.680Z,3.97
2018-08-20T23:37:58.727Z,5.20
2018-08-20T23:40:26.895Z,4.83
2018-08-20T23:42:55.759Z,4.60
2018-08-20T23:45:32.857Z,4.87
2018-08-20T23:48:01.008Z,4.50
2018-08-20T23:50:29.116Z,4.87
2018-08-20T23:52:57.215Z,4.77
2018-08-20T23:55:25.345Z,4.83
2018-08-20T23:57:53.467Z,4.90
